createdAt,value
2022-08-03T00:02:19.603Z,99340.28
2022-08-03T00:04:48.038Z,99341.75
2022-08-03T00:07:16.090Z,99343.22
2022-08-03T00:09:44.176Z,99343.56
2022-08-03T00:12:12.569Z,99346.03
2022-08-03T00:14:40.451Z,99350.63
2022-08-03T00:17:08.379Z,99346.88
2022-08-03T00:19:36.459Z,99343.94
2022-08-03T00:22:04.279Z,99347.06
2022-08-03T00:24:31.982Z,99346.53
2022-08-03T00:27:00.067Z,99355.03
2022-08-03T00:29:28.279Z,99346.28
2022-08-03T00:31:59.566Z,99347.59
2022-08-03T00:34:57.048Z,99347.47
2022-08-03T00:37:16.588Z,99347.53
2022-08-03T00:39:47.411Z,99342.25
2022-08-03T00:42:16.261Z,99347.88
2022-08-03T00:44:45.119Z,99350.09
2022-08-03T00:47:13.350Z,99352.47
2022-08-03T00:49:41.821Z,99351.81
2022-08-03T00:52:10.693Z,99354.84
2022-08-03T00:54:38.946Z,99356.44
2022-08-03T00:57:07.849Z,99356.31
2022-08-03T00:59:37.129Z,99358.88
2022-08-03T01:02:04.990Z,99360.09
2022-08-03T01:04:32.851Z,99351.47
2022-08-03T01:07:13.030Z,99348.62
2022-08-03T01:09:57.110Z,99355.03
2022-08-03T01:12:33.252Z,99362.31
2022-08-03T01:15:13.594Z,99355.22
2022-08-03T01:18:06.435Z,99359.59
2022-08-03T01:20:36.783Z,99361.56
2022-08-03T01:23:13.960Z,99363.53
2022-08-03T01:25:59.119Z,99361.59
2022-08-03T01:28:55.191Z,99361.00
2022-08-03T01:31:27.960Z,99358.50
2022-08-03T01:34:04.049Z,99361.91
2022-08-03T01:36:43.860Z,99359.44
2022-08-03T01:39:12.419Z,99361.56
2022-08-03T01:41:48.818Z,99363.38
2022-08-03T01:44:29.442Z,99363.13
2022-08-03T01:47:00.520Z,99358.34
2022-08-03T01:49:34.478Z,99356.19
2022-08-03T01:52:05.204Z,99358.59
2022-08-03T01:54:36.829Z,99354.63
2022-08-03T01:57:05.156Z,99351.25
2022-08-03T01:59:35.049Z,99354.97
2022-08-03T02:02:28.416Z,99362.63
2022-08-03T02:04:54.839Z,99360.00
2022-08-03T02:07:24.200Z,99359.31
2022-08-03T02:09:53.168Z,99362.81
2022-08-03T02:12:22.766Z,99360.00
2022-08-03T02:14:51.008Z,99368.25
2022-08-03T02:17:39.916Z,99356.53
2022-08-03T02:20:09.881Z,99360.78
2022-08-03T02:22:40.579Z,99357.59
2022-08-03T02:25:13.699Z,99364.66
2022-08-03T02:28:09.070Z,99359.53
2022-08-03T02:30:39.564Z,99360.72
2022-08-03T02:33:11.627Z,99357.19
2022-08-03T02:35:40.237Z,99366.19
2022-08-03T02:38:09.279Z,99362.75
2022-08-03T02:40:37.379Z,99367.75
2022-08-03T02:43:08.509Z,99362.47
2022-08-03T02:45:45.689Z,99359.69
2022-08-03T02:48:16.803Z,99360.78
2022-08-03T02:50:45.618Z,99362.97
2022-08-03T02:53:14.410Z,99364.22
2022-08-03T02:55:45.627Z,99367.00
2022-08-03T02:58:14.904Z,99363.28
2022-08-03T03:00:44.537Z,99370.28
2022-08-03T03:03:12.838Z,99363.22
2022-08-03T03:05:54.682Z,99370.13
2022-08-03T03:08:28.506Z,99367.50
2022-08-03T03:11:00.228Z,99368.13
2022-08-03T03:13:31.918Z,99365.22
2022-08-03T03:16:01.820Z,99360.91
2022-08-03T03:18:31.720Z,99362.06
2022-08-03T03:21:01.435Z,99368.75
2022-08-03T03:23:30.079Z,99363.41
2022-08-03T03:25:59.088Z,99363.13
2022-08-03T03:28:26.946Z,99371.53
2022-08-03T03:30:55.158Z,99364.09
2022-08-03T03:33:23.539Z,99372.56
2022-08-03T03:35:52.047Z,99368.84
2022-08-03T03:38:20.603Z,99367.97
2022-08-03T03:40:48.560Z,99368.69
2022-08-03T03:43:18.697Z,99370.59
2022-08-03T03:45:47.945Z,99371.03
2022-08-03T03:48:16.169Z,99367.16
2022-08-03T03:50:44.598Z,99374.13
2022-08-03T03:53:15.009Z,99373.75
2022-08-03T03:55:59.373Z,99369.06
2022-08-03T03:58:32.523Z,99370.88
2022-08-03T04:01:01.173Z,99370.59
2022-08-03T04:03:29.271Z,99374.63
2022-08-03T04:06:16.182Z,99371.56
2022-08-03T04:09:03.991Z,99376.09
2022-08-03T04:11:46.157Z,99376.16
2022-08-03T04:14:33.206Z,99381.75
2022-08-03T04:17:06.169Z,99383.47
2022-08-03T04:19:44.464Z,99384.72
2022-08-03T04:22:19.108Z,99386.38
2022-08-03T04:24:49.879Z,99390.38
2022-08-03T04:27:24.527Z,99402.19
2022-08-03T04:29:55.338Z,99401.28
2022-08-03T04:32:25.464Z,99404.88
2022-08-03T04:34:54.062Z,99402.06
2022-08-03T04:37:30.257Z,99397.59
2022-08-03T04:40:00.209Z,99407.19
2022-08-03T04:42:28.697Z,99415.09
2022-08-03T04:45:01.049Z,99414.16
2022-08-03T04:47:34.659Z,99412.97
2022-08-03T04:50:03.901Z,99402.53
2022-08-03T04:52:32.349Z,99411.19
2022-08-03T04:55:00.168Z,99423.75
2022-08-03T04:57:27.949Z,99425.34
2022-08-03T05:00:02.240Z,99427.91
2022-08-03T05:02:32.553Z,99430.91
2022-08-03T05:05:01.210Z,99424.81
2022-08-03T05:07:36.555Z,99429.03
2022-08-03T05:10:15.937Z,99434.63
2022-08-03T05:12:46.227Z,99439.41
2022-08-03T05:15:14.756Z,99436.94
2022-08-03T05:17:42.965Z,99440.50
2022-08-03T05:20:11.540Z,99441.62
2022-08-03T05:22:39.758Z,99447.19
2022-08-03T05:25:07.986Z,99449.41
2022-08-03T05:27:36.348Z,99456.56
2022-08-03T05:30:30.788Z,99450.09
2022-08-03T05:32:53.732Z,99454.09
2022-08-03T05:35:57.846Z,99455.03
2022-08-03T05:38:10.076Z,99453.97
2022-08-03T05:40:38.767Z,99455.47
2022-08-03T05:43:14.733Z,99464.78
2022-08-03T05:45:43.428Z,99459.06
2022-08-03T05:48:11.150Z,99458.13
2022-08-03T05:50:42.773Z,99464.88
2022-08-03T05:53:11.060Z,99454.84
2022-08-03T05:55:38.901Z,99463.47
2022-08-03T05:58:06.727Z,99463.56
2022-08-03T06:00:35.020Z,99468.31
2022-08-03T06:03:03.319Z,99465.63
2022-08-03T06:05:31.610Z,99468.75
2022-08-03T06:07:59.513Z,99469.38
2022-08-03T06:10:34.467Z,99476.00
2022-08-03T06:13:05.588Z,99477.03
2022-08-03T06:15:35.589Z,99477.91
2022-08-03T06:18:03.544Z,99479.75
2022-08-03T06:20:31.268Z,99479.03
2022-08-03T06:23:01.391Z,99474.91
2022-08-03T06:25:29.500Z,99476.31
2022-08-03T06:27:57.422Z,99477.03
2022-08-03T06:30:25.702Z,99472.25
2022-08-03T06:32:53.510Z,99480.00
2022-08-03T06:35:21.399Z,99486.25
2022-08-03T06:37:51.232Z,99483.50
2022-08-03T06:40:24.276Z,99489.94
2022-08-03T06:42:52.804Z,99486.41
2022-08-03T06:45:20.679Z,99488.59
2022-08-03T06:47:48.589Z,99495.59
2022-08-03T06:50:21.719Z,99495.03
2022-08-03T06:52:52.077Z,99496.59
2022-08-03T06:55:20.200Z,99500.41
2022-08-03T06:57:47.990Z,99493.75
2022-08-03T07:00:16.700Z,99491.25
2022-08-03T07:02:48.261Z,99493.59
2022-08-03T07:05:20.914Z,99495.44
2022-08-03T07:07:49.561Z,99496.28
2022-08-03T07:10:17.267Z,99496.97
2022-08-03T07:12:56.206Z,99489.97
2022-08-03T07:15:38.386Z,99496.00
2022-08-03T07:18:13.451Z,99479.78
2022-08-03T07:20:41.583Z,99489.09
2022-08-03T07:23:10.013Z,99500.25
2022-08-03T07:25:47.205Z,99495.69
2022-08-03T07:28:15.041Z,99488.56
2022-08-03T07:30:42.902Z,99490.63
2022-08-03T07:33:10.989Z,99484.75
2022-08-03T07:35:39.220Z,99489.75
2022-08-03T07:38:07.094Z,99487.31
2022-08-03T07:40:35.290Z,99488.63
2022-08-03T07:43:03.920Z,99491.37
2022-08-03T07:45:32.441Z,99487.09
2022-08-03T07:48:00.560Z,99486.22
2022-08-03T07:50:28.420Z,99489.06
2022-08-03T07:52:58.007Z,99488.59
2022-08-03T07:55:26.871Z,99488.94
2022-08-03T07:58:07.003Z,99486.66
2022-08-03T08:00:35.420Z,99486.06
2022-08-03T08:03:03.630Z,99492.31
2022-08-03T08:05:31.846Z,99492.22
2022-08-03T08:08:00.703Z,99493.28
2022-08-03T08:10:29.260Z,99491.97
2022-08-03T08:12:57.676Z,99493.41
2022-08-03T08:15:25.590Z,99499.81
2022-08-03T08:18:00.110Z,99485.44
2022-08-03T08:20:31.521Z,99488.03
2022-08-03T08:23:02.810Z,99491.66
2022-08-03T08:25:32.453Z,99492.81
2022-08-03T08:28:31.371Z,99490.94
2022-08-03T08:30:52.601Z,99487.38
2022-08-03T08:33:23.380Z,99483.19
2022-08-03T08:35:53.446Z,99489.47
2022-08-03T08:38:22.761Z,99489.44
2022-08-03T08:40:51.186Z,99489.38
2022-08-03T08:43:19.159Z,99488.09
2022-08-03T08:45:50.810Z,99489.44
2022-08-03T08:48:25.312Z,99485.06
2022-08-03T08:50:54.761Z,99490.72
2022-08-03T08:53:27.628Z,99484.28
2022-08-03T08:56:01.095Z,99484.91
2022-08-03T08:58:31.185Z,99481.66
2022-08-03T09:00:59.495Z,99476.94
2022-08-03T09:03:30.229Z,99478.81
2022-08-03T09:06:02.675Z,99481.00
2022-08-03T09:08:32.302Z,99475.59
2022-08-03T09:11:00.838Z,99477.75
2022-08-03T09:13:30.644Z,99467.00
2022-08-03T09:16:27.939Z,99479.72
2022-08-03T09:18:56.120Z,99478.03
2022-08-03T09:21:34.677Z,99462.72
2022-08-03T09:24:06.296Z,99469.50
2022-08-03T09:26:37.800Z,99464.78
2022-08-03T09:29:13.796Z,99462.03
2022-08-03T09:31:46.744Z,99468.81
2022-08-03T09:34:17.185Z,99459.31
2022-08-03T09:36:47.171Z,99458.84
2022-08-03T09:39:30.094Z,99456.06
2022-08-03T09:42:14.811Z,99460.78
2022-08-03T09:44:44.530Z,99465.47
2022-08-03T09:47:14.212Z,99463.72
2022-08-03T09:49:43.177Z,99449.25
2022-08-03T09:52:31.977Z,99448.41
2022-08-03T09:56:31.652Z,99452.44
2022-08-03T09:58:07.440Z,99450.63
2022-08-03T10:00:59.767Z,99443.34
2022-08-03T10:03:31.200Z,99439.94
2022-08-03T10:06:00.144Z,99440.69
2022-08-03T10:08:28.689Z,99443.19
2022-08-03T10:10:58.869Z,99432.75
2022-08-03T10:13:27.382Z,99433.91
2022-08-03T10:16:23.605Z,99424.81
2022-08-03T10:18:43.442Z,99425.47
2022-08-03T10:21:13.121Z,99427.00
2022-08-03T10:23:41.750Z,99420.59
2022-08-03T10:26:10.748Z,99423.25
2022-08-03T10:28:45.084Z,99421.56
2022-08-03T10:31:14.465Z,99418.22
2022-08-03T10:33:51.887Z,99420.00
2022-08-03T10:36:24.098Z,99414.75
2022-08-03T10:38:53.945Z,99416.97
2022-08-03T10:41:23.898Z,99414.87
2022-08-03T10:44:11.160Z,99414.75
2022-08-03T10:46:44.802Z,99407.44
2022-08-03T10:49:15.771Z,99401.44
2022-08-03T10:51:45.458Z,99401.44
2022-08-03T10:54:35.710Z,99396.88
2022-08-03T10:57:22.632Z,99394.59
2022-08-03T10:59:51.344Z,99397.16
2022-08-03T11:02:19.411Z,99392.72
2022-08-03T11:04:47.302Z,99394.09
2022-08-03T11:07:24.050Z,99389.63
2022-08-03T11:09:56.770Z,99381.69
2022-08-03T11:12:33.607Z,99379.84
2022-08-03T11:15:07.490Z,99386.00
2022-08-03T11:17:46.204Z,99378.91
2022-08-03T11:20:58.278Z,99373.94
2022-08-03T11:24:05.458Z,99369.13
2022-08-03T11:26:34.685Z,99372.97
2022-08-03T11:29:29.785Z,99366.59
2022-08-03T11:31:58.089Z,99369.59
2022-08-03T11:34:26.471Z,99362.19
2022-08-03T11:37:21.853Z,99362.88
2022-08-03T11:39:53.217Z,99357.94
2022-08-03T11:42:27.689Z,99360.63
2022-08-03T11:44:56.587Z,99351.19
2022-08-03T11:47:27.198Z,99353.84
2022-08-03T11:49:59.270Z,99352.75
2022-08-03T11:52:28.878Z,99348.84
2022-08-03T11:54:57.583Z,99354.66
2022-08-03T11:59:10.623Z,99349.78
2022-08-03T12:00:32.229Z,99356.88
2022-08-03T12:03:03.113Z,99354.91
2022-08-03T12:05:39.885Z,99350.94
2022-08-03T12:08:10.289Z,99342.38
2022-08-03T12:10:39.335Z,99346.53
2022-08-03T12:14:43.730Z,99344.91
2022-08-03T12:15:59.483Z,99347.94
2022-08-03T12:18:27.420Z,99337.84
2022-08-03T12:21:13.529Z,99341.53
2022-08-03T12:23:41.993Z,99344.81
2022-08-03T12:26:10.520Z,99340.53
2022-08-03T12:28:38.662Z,99338.44
2022-08-03T12:31:09.747Z,99333.34
2022-08-03T12:33:59.230Z,99336.25
2022-08-03T12:36:28.211Z,99328.78
2022-08-03T12:39:00.889Z,99323.94
2022-08-03T12:41:36.767Z,99320.69
2022-08-03T12:44:06.166Z,99317.59
2022-08-03T12:46:36.807Z,99323.13
2022-08-03T12:49:12.397Z,99313.84
2022-08-03T12:51:43.776Z,99315.72
2022-08-03T12:54:24.691Z,99321.56
2022-08-03T12:57:11.336Z,99321.78
2022-08-03T12:59:53.426Z,99314.28
2022-08-03T13:02:23.762Z,99310.44
2022-08-03T13:04:53.159Z,99313.94
2022-08-03T13:07:22.584Z,99319.03
2022-08-03T13:09:55.697Z,99305.16
2022-08-03T13:12:25.999Z,99305.19
2022-08-03T13:14:56.963Z,99304.81
2022-08-03T13:17:25.349Z,99298.50
2022-08-03T13:19:53.780Z,99295.62
2022-08-03T13:22:25.561Z,99297.09
2022-08-03T13:24:59.049Z,99290.00
2022-08-03T13:28:03.259Z,99289.72
2022-08-03T13:30:28.217Z,99282.25
2022-08-03T13:33:00.289Z,99280.97
2022-08-03T13:35:28.646Z,99287.50
2022-08-03T13:37:56.407Z,99286.53
2022-08-03T13:40:29.950Z,99277.69
2022-08-03T13:42:58.964Z,99267.91
2022-08-03T13:45:27.815Z,99276.31
2022-08-03T13:47:55.690Z,99266.94
2022-08-03T13:50:23.809Z,99272.91
2022-08-03T13:52:52.080Z,99270.41
2022-08-03T13:55:20.003Z,99264.19
2022-08-03T13:58:03.563Z,99256.31
2022-08-03T14:00:33.390Z,99263.69
2022-08-03T14:03:09.156Z,99252.28
2022-08-03T14:05:41.729Z,99255.78
2022-08-03T14:08:10.378Z,99251.28
2022-08-03T14:10:40.653Z,99254.75
2022-08-03T14:13:09.232Z,99242.38
2022-08-03T14:15:38.680Z,99234.16
2022-08-03T14:18:15.383Z,99245.13
2022-08-03T14:20:47.741Z,99236.34
2022-08-03T14:23:18.349Z,99233.16
2022-08-03T14:25:52.039Z,99236.16
2022-08-03T14:28:25.259Z,99236.88
2022-08-03T14:30:54.272Z,99233.72
2022-08-03T14:33:22.498Z,99235.66
2022-08-03T14:35:50.909Z,99232.16
2022-08-03T14:38:19.199Z,99226.78
2022-08-03T14:40:47.572Z,99228.75
2022-08-03T14:43:18.154Z,99226.03
2022-08-03T14:45:46.603Z,99220.72
2022-08-03T14:50:29.738Z,99220.12
2022-08-03T14:51:02.743Z,99216.78
2022-08-03T14:53:30.668Z,99210.69
2022-08-03T14:55:58.493Z,99217.38
2022-08-03T14:58:27.011Z,99216.75
2022-08-03T15:00:55.901Z,99207.50
2022-08-03T15:03:25.176Z,99217.78
2022-08-03T15:05:55.208Z,99219.25
2022-08-03T15:08:24.191Z,99212.06
2022-08-03T15:10:53.150Z,99216.53
2022-08-03T15:13:21.422Z,99208.56
2022-08-03T15:15:50.066Z,99213.34
2022-08-03T15:18:17.947Z,99206.88
2022-08-03T15:20:47.326Z,99207.25
2022-08-03T15:23:15.720Z,99215.06
2022-08-03T15:26:03.704Z,99208.31
2022-08-03T15:28:33.250Z,99205.09
2022-08-03T15:31:01.418Z,99210.22
2022-08-03T15:33:29.556Z,99205.56
2022-08-03T15:36:00.171Z,99204.50
2022-08-03T15:38:28.125Z,99198.84
2022-08-03T15:40:55.958Z,99202.03
2022-08-03T15:43:24.193Z,99206.25
2022-08-03T15:46:19.214Z,99207.34
2022-08-03T15:48:40.920Z,99206.03
2022-08-03T15:51:09.280Z,99201.78
2022-08-03T15:53:37.699Z,99195.59
2022-08-03T15:56:11.335Z,99204.06
2022-08-03T15:59:09.726Z,99205.75
2022-08-03T16:01:30.707Z,99200.03
2022-08-03T16:03:58.930Z,99203.75
2022-08-03T16:06:34.955Z,99197.12
2022-08-03T16:09:22.899Z,99193.28
2022-08-03T16:11:52.351Z,99198.47
2022-08-03T16:14:32.424Z,99197.00
2022-08-03T16:17:05.830Z,99187.22
2022-08-03T16:19:34.081Z,99193.47
2022-08-03T16:22:03.535Z,99183.78
2022-08-03T16:24:32.253Z,99183.69
2022-08-03T16:27:00.696Z,99190.22
2022-08-03T16:29:28.861Z,99182.62
2022-08-03T16:31:56.704Z,99184.97
2022-08-03T16:34:24.933Z,99187.00
2022-08-03T16:36:52.820Z,99192.41
2022-08-03T16:39:20.675Z,99181.12
2022-08-03T16:42:00.355Z,99187.81
2022-08-03T16:44:30.128Z,99193.19
2022-08-03T16:46:59.583Z,99195.44
2022-08-03T16:49:54.467Z,99184.16
2022-08-03T16:52:16.561Z,99187.16
2022-08-03T16:54:53.267Z,99190.97
2022-08-03T16:57:56.688Z,99191.56
2022-08-03T17:00:12.494Z,99195.28
2022-08-03T17:03:04.230Z,99189.94
2022-08-03T17:05:47.353Z,99195.69
2022-08-03T17:08:16.424Z,99206.56
2022-08-03T17:10:54.905Z,99210.16
2022-08-03T17:13:38.825Z,99211.94
2022-08-03T17:16:10.606Z,99208.22
2022-08-03T17:18:47.517Z,99212.72
2022-08-03T17:21:16.535Z,99214.22
2022-08-03T17:23:50.591Z,99219.75
2022-08-03T17:26:21.977Z,99213.84
2022-08-03T17:28:57.408Z,99216.75
2022-08-03T17:31:30.746Z,99212.94
2022-08-03T17:34:04.250Z,99210.81
2022-08-03T17:37:02.176Z,99216.63
2022-08-03T17:39:41.639Z,99221.78
2022-08-03T17:42:30.422Z,99216.63
2022-08-03T17:45:02.057Z,99217.25
2022-08-03T17:47:41.196Z,99222.87
2022-08-03T17:50:25.404Z,99226.38
2022-08-03T17:53:24.463Z,99224.47
2022-08-03T17:56:40.249Z,99225.72
2022-08-03T17:59:16.196Z,99223.28
2022-08-03T18:02:14.499Z,99217.56
2022-08-03T18:05:00.659Z,99226.16
2022-08-03T18:07:40.775Z,99224.16
2022-08-03T18:10:11.278Z,99222.41
2022-08-03T18:13:10.415Z,99231.59
2022-08-03T18:16:03.090Z,99231.47
2022-08-03T18:18:38.649Z,99234.69
2022-08-03T18:21:09.399Z,99235.38
2022-08-03T18:23:45.262Z,99240.50
2022-08-03T18:26:18.986Z,99242.50
2022-08-03T18:28:48.239Z,99239.97
2022-08-03T18:34:17.325Z,99246.81
2022-08-03T18:36:56.389Z,99247.31
2022-08-03T18:39:24.456Z,99252.97
2022-08-03T18:41:52.750Z,99250.59
2022-08-03T18:44:37.661Z,99258.94
2022-08-03T18:47:52.322Z,99263.16
2022-08-03T18:50:48.277Z,99259.84
2022-08-03T18:53:20.298Z,99260.91
2022-08-03T18:56:02.237Z,99261.53
2022-08-03T18:59:02.192Z,99272.00
2022-08-03T19:02:00.851Z,99267.25
2022-08-03T19:04:34.137Z,99269.53
2022-08-03T19:07:08.064Z,99279.50
2022-08-03T19:09:53.084Z,99279.75
2022-08-03T19:12:43.117Z,99278.44
2022-08-03T19:15:15.788Z,99285.00
2022-08-03T19:17:50.195Z,99284.84
2022-08-03T19:20:23.050Z,99283.00
2022-08-03T19:22:55.419Z,99288.06
2022-08-03T19:25:34.599Z,99281.53
2022-08-03T19:28:11.849Z,99291.56
2022-08-03T19:30:46.268Z,99292.34
2022-08-03T19:33:22.841Z,99299.53
2022-08-03T19:35:55.295Z,99297.44
2022-08-03T19:38:28.516Z,99296.41
2022-08-03T19:41:00.068Z,99305.50
2022-08-03T19:43:49.388Z,99297.31
2022-08-03T19:46:30.137Z,99299.97
2022-08-03T19:49:14.522Z,99303.25
2022-08-03T19:51:58.371Z,99305.84
2022-08-03T19:54:54.038Z,99308.28
2022-08-03T19:57:27.437Z,99309.78
2022-08-03T19:59:56.985Z,99309.06
2022-08-03T20:02:26.480Z,99303.16
2022-08-03T20:04:57.459Z,99299.94
2022-08-03T20:07:26.529Z,99305.25
2022-08-03T20:09:56.649Z,99305.84
2022-08-03T20:12:28.415Z,99305.09
2022-08-03T20:14:59.725Z,99308.59
2022-08-03T20:17:56.178Z,99306.28
2022-08-03T20:20:30.831Z,99307.91
2022-08-03T20:23:00.902Z,99312.53
2022-08-03T20:25:38.919Z,99300.87
2022-08-03T20:28:29.280Z,99305.44
2022-08-03T20:30:57.660Z,99302.00
2022-08-03T20:33:48.851Z,99309.03
2022-08-03T20:36:17.810Z,99305.69
2022-08-03T20:38:51.949Z,99313.34
2022-08-03T20:41:20.108Z,99311.38
2022-08-03T20:43:51.143Z,99309.22
2022-08-03T20:46:32.890Z,99312.47
2022-08-03T20:49:06.965Z,99307.28
2022-08-03T20:51:49.567Z,99310.62
2022-08-03T20:54:29.526Z,99307.34
2022-08-03T20:57:04.204Z,99312.44
2022-08-03T20:59:47.652Z,99310.38
2022-08-03T21:02:30.322Z,99312.09
2022-08-03T21:05:03.693Z,99305.22
2022-08-03T21:08:06.896Z,99303.97
2022-08-03T21:10:41.974Z,99302.78
2022-08-03T21:13:04.328Z,99241.09
2022-08-03T21:13:18.817Z,99309.63
2022-08-03T21:16:07.017Z,99308.94
2022-08-03T21:18:44.924Z,99310.03
2022-08-03T21:21:16.037Z,99312.16
2022-08-03T21:23:48.782Z,99312.00
2022-08-03T21:26:22.871Z,99317.84
2022-08-03T21:28:53.171Z,99314.84
2022-08-03T21:31:24.860Z,99311.41
2022-08-03T21:34:05.440Z,99314.87
2022-08-03T21:36:36.370Z,99315.56
2022-08-03T21:39:08.548Z,99318.00
2022-08-03T21:41:38.621Z,99320.88
2022-08-03T21:44:07.171Z,99323.72
2022-08-03T21:46:41.071Z,99324.94
2022-08-03T21:50:04.710Z,99322.66
2022-08-03T21:52:04.565Z,99331.97
2022-08-03T21:54:38.350Z,99330.44
2022-08-03T21:57:10.501Z,99331.31
2022-08-03T21:59:39.991Z,99337.63
2022-08-03T22:02:11.515Z,99332.25
2022-08-03T22:04:55.329Z,99333.25
2022-08-03T22:07:28.174Z,99337.31
2022-08-03T22:09:58.680Z,99338.75
2022-08-03T22:12:29.432Z,99336.97
2022-08-03T22:15:00.319Z,99341.75
2022-08-03T22:17:55.622Z,99340.66
2022-08-03T22:20:25.252Z,99332.59
2022-08-03T22:22:58.481Z,99337.56
2022-08-03T22:25:29.434Z,99338.41
2022-08-03T22:28:08.690Z,99340.91
2022-08-03T22:30:37.660Z,99349.50
2022-08-03T22:33:11.467Z,99341.38
2022-08-03T22:35:47.794Z,99344.97
2022-08-03T22:38:17.678Z,99344.63
2022-08-03T22:40:48.872Z,99345.22
2022-08-03T22:43:17.007Z,99348.81
2022-08-03T22:46:08.835Z,99346.28
2022-08-03T22:48:35.702Z,99345.03
2022-08-03T22:51:09.371Z,99346.97
2022-08-03T22:53:37.452Z,99346.41
2022-08-03T22:56:05.491Z,99348.81
2022-08-03T22:58:33.584Z,99341.31
2022-08-03T23:01:07.961Z,99350.19
2022-08-03T23:04:00.538Z,99346.56
2022-08-03T23:06:39.301Z,99339.94
2022-08-03T23:09:09.817Z,99344.22
2022-08-03T23:11:45.362Z,99346.47
2022-08-03T23:14:16.520Z,99346.19
2022-08-03T23:16:45.681Z,99342.66
2022-08-03T23:19:16.998Z,99347.75
2022-08-03T23:22:02.327Z,99349.94
2022-08-03T23:24:38.251Z,99352.03
2022-08-03T23:27:07.751Z,99352.63
2022-08-03T23:29:39.770Z,99342.84
2022-08-03T23:32:08.480Z,99343.75
2022-08-03T23:34:58.121Z,99347.59
2022-08-03T23:37:27.123Z,99345.09
2022-08-03T23:39:57.231Z,99357.38
2022-08-03T23:42:25.721Z,99348.97
2022-08-03T23:44:56.700Z,99351.75
2022-08-03T23:47:47.092Z,99354.66
2022-08-03T23:50:16.561Z,99361.84
2022-08-03T23:53:20.692Z,99351.16
2022-08-03T23:56:09.951Z,99344.47
2022-08-03T23:58:51.840Z,99350.53
